Lake, MI

10:33 PM EDT on April 21, 2015 (GMT -0400)
Roscommon County | | Change Station
CLOSE
Current Station
Airport
Location: Houghton Lake,
Elevation: 1152 ft
Nearby Weather Stations

Elev 1152 ft 44.36 °N, 84.67 °W | Updated 40 minutes ago

Overcast
Overcast
37 °F
Feels Like 28 °F
N
15
Wind Variable Wind from WSW
Gusts 22 mph

Today
High -- | Low -- °F
--% Chance of Precip.
Yesterday
High -- | Low -- °F
Precip. -- in
6:47 AM 8:30 PM
Waxing Crescent, 14% visible
Pressure 29.55 in
Visibility 10.0 miles
Clouds Scattered Clouds 1600 ft
Mostly Cloudy 2200 ft
Overcast 2800 ft
Windchill 28 °F
Dew Point 31 °F
Humidity 79%
Rainfall 0.07 in
Snow Depth Not available.
UV 0 out of 12
Pollen 7.90 out of 12
Air Quality Not available.
Flu Activity Regional
METAR KHTL 220153Z AUTO 24013G19KT 10SM SCT016 BKN022 OVC028 03/M01 A2952 RMK AO2 SLP006 T00281006

More Conditions Fewer Conditions

Pressure 29.55 in
Visibility 10.0 miles
Clouds Scattered Clouds 1600 ft
Mostly Cloudy 2200 ft
Overcast 2800 ft
Windchill 28 °F
Dew Point 31 °F
Humidity 79%
Rainfall 0.07 in
Snow Depth Not available.
UV 0 out of 12
Pollen 7.90 out of 12
Air Quality Not available.
Flu Activity Regional
METAR KHTL 220153Z AUTO 24013G19KT 10SM SCT016 BKN022 OVC028 03/M01 A2952 RMK AO2 SLP006 T00281006

More Conditions Fewer Conditions

10-Day Weather Forecast

Almanac

Astronomy

Apr. 21, 2015 Rise Set
Actual Time
Civil Twilight
Nautical Twilight
Astronomical Twilight
Moon
Length of Visible Light
Length of Day
Tomorrow will be .
, % of the Moon is Illuminated

Today's Extremes

State Highs State Lows

Community

WunderPhotos

Upload Photos

1,815,637 photos uploaded!

WunderBlogs® & News

Nearby

Air Quality

  Air Quality AQ Index Pollutant
Not available.

Snow Depth

Station Depth Elevation

Earthquake Activity

City Distance Mag. Time & Date
Minimum magnitude displayed is 2.5.

Coastal Water Temperatures

Place Temperature

Stations

Nearby Weather Stations

Station Location Temp. Windchill Dew Point Humidity Wind Precip. Elev Updated Type